Alfred, New York
Current Conditions -  °F | °C
As of 1:56 AM on Thursday 23 Oct 2014 (Local Time) from KELZ Reporting Station
Overcast Overcast  
Wind Chill:   Ceiling: 400
Heat Index:   Visibility: 10mi
Dew Point:   Wind: 14mph
Humidity: 89%   Direction: 340°NNW
Pressure: 30.07"   Gusts: 21mph
Location:  42.25°N, 77.79°W
Report Text: KELZ 230556Z AUTO 34012G18KT 10SM OVC004 06/04 A3007 RMK AO2 SLP195 T00610044 10061 20050 58006
Loading
Personal Weather Stations






























Interactive Weather Map
Tropical Storm Tracking
New forecast layout! Learn more

10-Day Weather Forecast

Advertisements
Track Severe Weather on mobile